Time;durP1;ratioP1;P1;durP2;ratioP2;P2;SDS_P1;SDS_P2;PMS_P1;PMS_P2;Temp;Humidity;BMP_temperature;BMP_pressure;BME280_temperature;BME280_humidity;BME280_pressure;Samples;Min_cycle;Max_cycle;Signal;HPM_P1;HPM_P2
2024/03/28 00:01:56;;;;;;;1.30;0.70;;;;;;;10.28;63.50;97660.38;10384480;28;20042;-59
2024/03/28 00:06:57;;;;;;;1.55;0.77;;;;;;;10.24;63.56;97664.59;10380979;28;20098;-59
2024/03/28 00:11:57;;;;;;;1.17;0.73;;;;;;;10.16;63.70;97648.06;10384107;28;20053;-59
2024/03/28 00:16:59;;;;;;;1.13;0.60;;;;;;;10.16;63.46;97646.19;10382901;28;20050;-59
2024/03/28 00:21:59;;;;;;;5.32;1.33;;;;;;;10.08;63.57;97643.91;10388661;28;20030;-59
2024/03/28 00:27:00;;;;;;;2.40;0.70;;;;;;;10.07;63.52;97629.66;10382586;28;20108;-59
2024/03/28 00:32:00;;;;;;;1.63;0.70;;;;;;;10.09;63.38;97632.09;10381916;28;20038;-60
2024/03/28 00:37:01;;;;;;;1.85;0.70;;;;;;;10.08;63.29;97631.28;10384207;28;20064;-59
2024/03/28 00:42:01;;;;;;;2.83;0.80;;;;;;;10.04;63.44;97621.28;10387374;28;20096;-60
2024/03/28 00:47:02;;;;;;;1.27;0.63;;;;;;;10.00;63.57;97626.31;10378610;28;20103;-60
2024/03/28 00:52:02;;;;;;;0.88;0.50;;;;;;;9.99;63.78;97640.78;10397503;28;20050;-59
2024/03/28 00:57:03;;;;;;;2.03;1.10;;;;;;;9.84;63.86;97633.25;10383175;28;20038;-60
2024/03/28 01:02:04;;;;;;;3.67;0.77;;;;;;;9.80;64.07;97639.34;10389417;28;20410;-59
2024/03/28 01:07:04;;;;;;;1.20;0.60;;;;;;;9.79;64.17;97630.44;10383401;28;20641;-61
2024/03/28 01:12:05;;;;;;;2.08;0.95;;;;;;;9.71;64.21;97620.09;10383464;28;20046;-59
2024/03/28 01:17:05;;;;;;;2.22;1.30;;;;;;;9.64;64.48;97619.44;10380514;28;20458;-59
2024/03/28 01:22:06;;;;;;;2.22;1.17;;;;;;;9.59;64.66;97606.72;10380725;28;20083;-59
2024/03/28 01:27:06;;;;;;;3.85;1.30;;;;;;;9.61;64.51;97601.94;10381401;28;20696;-59
2024/03/28 01:32:07;;;;;;;3.38;1.52;;;;;;;9.57;64.81;97603.47;10381063;28;20099;-59
2024/03/28 01:37:07;;;;;;;2.83;1.75;;;;;;;9.54;64.76;97598.59;10380279;28;20116;-59
2024/03/28 01:42:08;;;;;;;3.70;1.70;;;;;;;9.48;65.19;97607.59;10385529;28;20191;-59
2024/03/28 01:47:09;;;;;;;2.60;1.65;;;;;;;9.46;64.96;97602.47;10375149;28;20049;-59
2024/03/28 01:52:12;;;;;;;4.97;1.95;;;;;;;9.43;65.15;97600.25;10385660;28;20099;-59
2024/03/28 01:57:13;;;;;;;4.65;2.15;;;;;;;9.37;65.36;97595.81;10380644;28;20052;-59
2024/03/28 02:02:14;;;;;;;6.70;2.95;;;;;;;9.29;65.63;97598.88;10379618;28;20123;-59
2024/03/28 02:07:15;;;;;;;8.63;3.53;;;;;;;9.22;65.75;97599.00;10380815;28;20451;-59
2024/03/28 02:12:16;;;;;;;5.47;3.25;;;;;;;9.15;65.86;97592.94;10379024;28;20046;-59
2024/03/28 02:17:16;;;;;;;6.05;3.20;;;;;;;9.11;66.08;97581.06;10382530;28;20508;-58
2024/03/28 02:22:17;;;;;;;6.45;3.67;;;;;;;9.07;66.17;97578.03;10380412;28;20049;-59
2024/03/28 02:27:17;;;;;;;7.22;3.95;;;;;;;9.05;66.39;97577.47;10377433;28;20052;-59
2024/03/28 02:32:18;;;;;;;7.57;4.47;;;;;;;9.05;66.23;97582.00;10377579;28;20377;-59
2024/03/28 02:37:18;;;;;;;8.32;4.93;;;;;;;9.01;66.57;97588.91;10383404;28;20103;-59
2024/03/28 02:42:19;;;;;;;7.07;4.35;;;;;;;8.98;66.20;97586.66;10377397;28;20157;-59
2024/03/28 02:47:19;;;;;;;13.13;4.45;;;;;;;8.97;66.43;97606.50;10386340;28;20506;-59
2024/03/28 02:52:20;;;;;;;7.32;4.15;;;;;;;8.90;66.63;97602.03;10383556;28;20041;-59
2024/03/28 02:57:24;;;;;;;6.40;4.18;;;;;;;8.91;66.61;97592.97;10391781;28;20057;-59
2024/03/28 03:02:25;;;;;;;7.25;4.85;;;;;;;8.86;66.73;97594.72;10391489;28;20099;-59
2024/03/28 03:07:25;;;;;;;7.32;4.30;;;;;;;8.80;66.73;97585.75;10391453;28;20467;-59
2024/03/28 03:12:26;;;;;;;8.80;4.38;;;;;;;8.78;67.09;97576.31;10383090;28;20046;-59
2024/03/28 03:17:26;;;;;;;7.25;4.35;;;;;;;8.73;66.71;97572.47;10369676;28;20061;-58
2024/03/28 03:22:28;;;;;;;8.20;4.78;;;;;;;8.69;66.89;97573.19;10383720;28;20052;-59
2024/03/28 03:27:32;;;;;;;8.18;4.35;;;;;;;8.56;67.38;97566.19;10389065;28;20571;-59
2024/03/28 03:34:34;;;;;;;5.78;4.13;;;;;;;8.51;67.50;97572.25;10387847;28;20041;-59
2024/03/28 03:37:56;;;;;;;7.03;4.40;;;;;;;8.40;67.15;97578.34;10380435;28;20049;-59
2024/03/28 03:42:57;;;;;;;9.05;4.55;;;;;;;8.28;67.58;97578.34;10387598;28;20050;-60
2024/03/28 03:47:57;;;;;;;6.82;4.13;;;;;;;8.23;68.27;97572.84;10389048;28;20500;-57
2024/03/28 03:52:58;;;;;;;8.30;4.07;;;;;;;8.17;67.91;97573.75;10371273;28;20573;-56
2024/03/28 03:57:58;;;;;;;7.50;3.67;;;;;;;8.13;67.50;97565.38;10385789;28;20404;-58
2024/03/28 04:02:59;;;;;;;7.15;3.97;;;;;;;8.09;67.38;97552.69;10385034;28;20038;-58
2024/03/28 04:07:59;;;;;;;7.85;4.47;;;;;;;8.02;67.56;97555.47;10384529;28;20049;-58
2024/03/28 04:13:00;;;;;;;13.20;7.00;;;;;;;7.95;67.25;97552.06;10383692;28;20499;-59
2024/03/28 04:18:00;;;;;;;12.35;6.03;;;;;;;7.89;67.21;97553.00;10368409;28;20121;-59
2024/03/28 04:23:01;;;;;;;10.35;5.82;;;;;;;7.78;67.33;97546.56;10378392;28;20117;-58
2024/03/28 04:28:01;;;;;;;7.68;4.80;;;;;;;7.62;67.38;97544.53;10367373;28;20042;-58
2024/03/28 04:33:02;;;;;;;8.93;5.05;;;;;;;7.58;67.60;97524.63;10385166;28;20777;-58
2024/03/28 04:38:04;;;;;;;8.40;4.75;;;;;;;7.47;67.68;97515.53;10403953;28;20055;-58
2024/03/28 04:43:04;;;;;;;9.25;4.97;;;;;;;7.35;67.45;97520.81;10409903;28;20052;-58
2024/03/28 04:48:05;;;;;;;8.00;4.88;;;;;;;7.25;67.37;97510.66;10413525;28;20037;-58
2024/03/28 04:53:05;;;;;;;11.32;5.05;;;;;;;7.17;67.61;97502.13;10406776;28;20500;-58
2024/03/28 04:58:06;;;;;;;8.80;4.80;;;;;;;7.06;67.54;97499.19;10406929;28;20055;-58
2024/03/28 05:03:06;;;;;;;10.75;5.07;;;;;;;6.96;67.80;97485.53;10408371;28;20048;-58
2024/03/28 05:08:07;;;;;;;11.00;5.72;;;;;;;6.87;67.32;97478.88;10404253;28;20405;-60
2024/03/28 05:13:07;;;;;;;8.70;5.35;;;;;;;6.90;67.41;97486.44;10406051;28;20037;-61
2024/03/28 05:18:09;;;;;;;10.35;5.93;;;;;;;6.89;67.17;97469.63;10405088;28;20044;-61
2024/03/28 05:23:09;;;;;;;12.00;5.97;;;;;;;6.86;68.40;97477.25;10408611;28;20353;-61
2024/03/28 05:28:10;;;;;;;10.02;5.63;;;;;;;6.85;68.05;97468.44;10402231;28;20052;-61
2024/03/28 05:33:10;;;;;;;14.32;6.13;;;;;;;6.85;68.13;97465.75;10391356;28;20136;-61
2024/03/28 05:38:11;;;;;;;12.05;6.43;;;;;;;6.84;67.85;97449.97;10406033;28;20051;-61
2024/03/28 05:43:11;;;;;;;11.68;5.82;;;;;;;6.86;68.32;97438.00;10405532;28;20056;-61
2024/03/28 05:48:12;;;;;;;11.50;6.47;;;;;;;6.86;68.46;97451.34;10412840;28;20043;-61
2024/03/28 05:53:14;;;;;;;13.57;6.50;;;;;;;6.91;67.99;97462.19;10388719;28;20056;-61
2024/03/28 05:58:14;;;;;;;12.13;5.95;;;;;;;6.94;68.57;97463.59;10408527;28;20107;-60
2024/03/28 06:03:15;;;;;;;11.93;5.97;;;;;;;7.02;68.25;97460.63;10405196;28;20079;-61
2024/03/28 06:08:15;;;;;;;10.65;5.28;;;;;;;7.11;68.24;97471.81;10405305;28;20056;-58
2024/03/28 06:13:16;;;;;;;10.23;4.95;;;;;;;7.20;68.79;97467.78;10401500;28;20045;-59
2024/03/28 06:18:16;;;;;;;11.15;5.15;;;;;;;7.29;68.53;97473.63;10386319;28;20054;-67
2024/03/28 06:23:17;;;;;;;14.57;5.50;;;;;;;7.54;68.94;97481.50;10411594;28;20076;-64
2024/03/28 06:28:19;;;;;;;9.40;4.78;;;;;;;7.87;68.66;97478.34;10413022;28;20045;-66
2024/03/28 06:33:20;;;;;;;6.55;4.32;;;;;;;8.09;68.79;97464.41;10415216;28;20060;-66
2024/03/28 06:38:21;;;;;;;10.35;4.80;;;;;;;8.25;68.16;97460.22;10414307;28;20045;-61
2024/03/28 06:43:21;;;;;;;9.82;3.92;;;;;;;8.52;67.99;97453.38;10413132;28;20464;-61
2024/03/28 06:48:22;;;;;;;5.55;3.88;;;;;;;8.82;67.89;97449.72;10408932;28;20057;-69
2024/03/28 06:53:22;;;;;;;7.10;3.58;;;;;;;9.01;67.06;97452.25;10413493;28;20041;-65
2024/03/28 06:58:23;;;;;;;5.40;3.65;;;;;;;9.23;67.34;97447.84;10412550;28;20132;-67
2024/03/28 07:03:23;;;;;;;5.55;2.80;;;;;;;9.51;66.36;97454.25;10413404;28;20087;-67
2024/03/28 07:08:24;;;;;;;3.85;2.53;;;;;;;9.73;66.34;97457.88;10429606;28;20045;-67
2024/03/28 07:13:25;;;;;;;3.25;2.10;;;;;;;9.89;66.05;97469.69;10417565;28;20049;-68
2024/03/28 07:18:25;;;;;;;4.28;2.17;;;;;;;9.91;65.78;97472.94;10413476;28;20045;-67
2024/03/28 07:23:30;;;;;;;5.05;2.42;;;;;;;9.92;65.61;97487.16;10408937;28;20533;-67
2024/03/28 07:28:30;;;;;;;3.05;2.05;;;;;;;9.83;65.43;97493.97;10417894;28;20492;-59
2024/03/28 07:33:31;;;;;;;3.30;2.17;;;;;;;9.81;65.68;97504.94;10412138;28;20041;-61
2024/03/28 07:38:31;;;;;;;3.58;1.80;;;;;;;9.72;65.29;97509.91;10410896;28;20045;-61
2024/03/28 07:43:32;;;;;;;8.13;2.58;;;;;;;9.72;65.76;97507.22;10413660;28;20045;-61
2024/03/28 07:48:35;;;;;;;4.75;1.75;;;;;;;9.80;65.55;97518.63;10407700;28;20041;-59
2024/03/28 07:53:36;;;;;;;3.78;1.75;;;;;;;9.67;65.50;97528.56;10411656;28;20454;-59
2024/03/28 07:58:36;;;;;;;3.75;1.20;;;;;;;9.49;65.59;97534.13;10415825;28;20041;-57
2024/03/28 08:03:37;;;;;;;3.85;1.30;;;;;;;9.28;66.25;97539.09;10412235;28;20051;-56
2024/03/28 08:08:39;;;;;;;1.98;1.20;;;;;;;9.08;66.73;97555.56;10409932;28;20033;-55
2024/03/28 08:13:39;;;;;;;1.67;0.95;;;;;;;8.79;67.59;97554.66;10414331;28;20044;-55
2024/03/28 08:18:41;;;;;;;2.33;1.23;;;;;;;8.73;67.83;97566.31;10408263;28;20037;-61
2024/03/28 08:23:42;;;;;;;4.40;1.85;;;;;;;8.60;68.13;97559.31;10408410;28;20087;-63
2024/03/28 08:28:43;;;;;;;3.88;1.50;;;;;;;8.54;69.06;97558.38;10408387;28;20415;-62
2024/03/28 08:33:43;;;;;;;2.40;1.02;;;;;;;8.38;69.28;97540.28;10405650;28;20049;-62
2024/03/28 08:38:45;;;;;;;7.47;2.00;;;;;;;8.47;70.30;97520.22;10405623;28;20418;-62
2024/03/28 08:43:48;;;;;;;7.88;2.55;;;;;;;8.95;69.73;97522.84;10409198;28;20063;-61
2024/03/28 08:48:48;;;;;;;2.63;1.23;;;;;;;9.02;70.51;97567.19;10412973;28;20093;-63
2024/03/28 08:53:49;;;;;;;4.68;1.55;;;;;;;8.94;71.49;97586.31;10402077;28;20526;-63
2024/03/28 08:58:49;;;;;;;2.72;1.05;;;;;;;8.95;71.19;97582.59;10408049;28;20044;-63
2024/03/28 09:03:51;;;;;;;3.30;1.40;;;;;;;8.78;71.79;97589.72;10408740;28;20403;-63
2024/03/28 09:08:51;;;;;;;4.10;1.00;;;;;;;8.83;71.88;97561.19;10409553;28;20095;-62
2024/03/28 09:13:52;;;;;;;1.63;0.80;;;;;;;8.89;72.12;97562.91;10406409;28;20041;-62
2024/03/28 09:18:52;;;;;;;6.57;0.95;;;;;;;9.02;71.97;97622.66;10409475;28;20042;-62
2024/03/28 09:23:54;;;;;;;1.80;0.90;;;;;;;8.84;72.41;97637.00;10401760;28;20073;-63
2024/03/28 09:28:58;;;;;;;4.28;1.00;;;;;;;8.85;71.83;97652.84;10404959;28;20119;-63
2024/03/28 09:33:59;;;;;;;1.73;0.80;;;;;;;8.84;72.22;97667.25;10403565;28;20048;-63
2024/03/28 09:39:02;;;;;;;4.38;1.10;;;;;;;8.73;72.07;97668.88;10384268;28;20076;-63
2024/03/28 09:44:10;;;;;;;2.38;0.80;;;;;;;8.85;71.86;97670.78;10410459;28;20097;-63
2024/03/28 09:49:13;;;;;;;2.92;1.23;;;;;;;8.80;72.07;97666.09;10406790;28;20037;-59
2024/03/28 09:54:14;;;;;;;4.97;1.73;;;;;;;8.81;72.23;97665.06;10412627;28;20053;-59
2024/03/28 09:59:15;;;;;;;2.03;0.88;;;;;;;9.00;72.09;97667.63;10405684;28;20569;-60
2024/03/28 10:04:17;;;;;;;3.08;0.50;;;;;;;9.06;72.16;97677.41;10410092;28;20053;-59
2024/03/28 10:09:17;;;;;;;2.90;0.88;;;;;;;9.12;72.10;97687.19;10403222;28;20048;-58
2024/03/28 10:14:22;;;;;;;3.03;1.00;;;;;;;9.11;72.45;97675.69;10409389;28;20071;-60
2024/03/28 10:19:23;;;;;;;2.55;1.38;;;;;;;9.47;72.25;97672.97;10405452;28;20048;-58
2024/03/28 10:24:23;;;;;;;2.15;1.33;;;;;;;11.73;67.40;97650.81;10405073;28;20656;-59
2024/03/28 10:29:24;;;;;;;2.00;1.15;;;;;;;12.73;65.20;97661.28;10402030;28;20090;-60
2024/03/28 10:34:25;;;;;;;1.98;0.90;;;;;;;12.76;65.40;97670.78;10410882;28;20178;-60
2024/03/28 10:39:25;;;;;;;1.95;1.05;;;;;;;12.67;66.40;97676.59;10403147;28;20037;-59
2024/03/28 10:44:27;;;;;;;1.23;0.90;;;;;;;13.22;65.64;97682.72;10407569;28;20103;-62
2024/03/28 10:49:40;;;;;;;1.73;0.80;;;;;;;15.87;58.41;97666.47;10403519;28;20044;-62
2024/03/28 10:54:47;;;;;;;1.60;0.90;;;;;;;13.24;63.98;97685.97;10407739;28;20442;-59
2024/03/28 10:59:49;;;;;;;1.98;0.50;;;;;;;12.67;65.79;97687.38;10402100;28;20254;-63
2024/03/28 11:04:50;;;;;;;0.82;0.50;;;;;;;12.26;65.66;97699.63;10404454;28;20057;-64
2024/03/28 11:09:53;;;;;;;1.30;0.45;;;;;;;12.24;65.21;97701.75;10412630;28;20049;-65
2024/03/28 11:14:56;;;;;;;1.00;0.85;;;;;;;12.47;64.47;97709.56;10409574;28;20052;-59
2024/03/28 11:20:08;;;;;;;0.60;0.30;;;;;;;12.65;63.79;97712.97;10406763;28;20491;-59
2024/03/28 11:25:31;;;;;;;2.88;0.38;;;;;;;12.77;62.95;97719.00;10406069;28;20045;-59
2024/03/28 11:30:34;;;;;;;25.25;11.45;;;;;;;13.22;61.06;97725.88;10420133;28;20049;-60
2024/03/28 11:35:34;;;;;;;2.10;0.40;;;;;;;13.51;59.11;97735.53;10417474;28;20098;-59
2024/03/28 11:40:36;;;;;;;0.43;0.20;;;;;;;12.99;59.77;97739.69;10397822;28;20450;-60
2024/03/28 11:45:46;;;;;;;2.33;0.70;;;;;;;12.29;59.24;97796.09;10407505;28;20053;-61
2024/03/28 11:50:48;;;;;;;19.02;11.30;;;;;;;11.48;60.65;97828.81;10415650;28;20052;-60
2024/03/28 11:55:50;;;;;;;11.55;5.53;;;;;;;10.63;62.79;97844.78;10416460;28;20598;-58
2024/03/28 12:00:58;;;;;;;63.20;32.58;;;;;;;10.37;63.91;97848.81;10412711;28;20041;-59
2024/03/28 12:05:59;;;;;;;0.77;0.20;;;;;;;10.66;63.23;97841.63;10417512;28;20602;-57
2024/03/28 12:11:02;;;;;;;0.20;0.10;;;;;;;11.78;61.05;97828.47;10412585;28;20457;-67
2024/03/28 12:16:07;;;;;;;0.10;0.00;;;;;;;12.95;59.55;97844.56;10411300;28;20042;-64
2024/03/28 12:21:11;;;;;;;0.30;0.10;;;;;;;12.61;60.31;97860.88;10409447;28;20050;-62
2024/03/28 12:26:18;;;;;;;0.05;0.00;;;;;;;12.19;60.15;97876.78;10406019;28;20037;-62
2024/03/28 12:31:22;;;;;;;0.73;0.22;;;;;;;13.88;57.26;97855.16;10410984;28;20048;-62
2024/03/28 12:36:23;;;;;;;0.47;0.47;;;;;;;19.73;45.69;97830.91;10388502;28;20048;-63
2024/03/28 12:41:23;;;;;;;0.63;0.00;;;;;;;22.98;41.02;97842.34;10374984;28;20053;-64
2024/03/28 12:46:24;;;;;;;0.03;0.00;;;;;;;19.94;44.54;97869.50;10387390;28;20064;-63
2024/03/28 12:51:25;;;;;;;0.32;0.00;;;;;;;17.11;48.04;97879.09;10405322;28;20038;-65
2024/03/28 12:56:25;;;;;;;0.25;0.10;;;;;;;17.12;46.76;97869.03;10409280;28;20041;-62
2024/03/28 13:01:26;;;;;;;0.68;0.10;;;;;;;21.20;38.34;97857.56;10407142;28;20087;-63
2024/03/28 13:06:27;;;;;;;0.47;0.00;;;;;;;23.32;35.76;97838.88;10387316;28;20095;-63
2024/03/28 13:11:27;;;;;;;0.15;0.00;;;;;;;24.53;33.84;97814.31;10405511;28;20408;-63
2024/03/28 13:16:28;;;;;;;2.17;0.10;;;;;;;25.09;32.60;97828.66;10405628;28;20491;-67
2024/03/28 13:21:30;;;;;;;0.00;0.00;;;;;;;25.36;32.32;97856.81;10406260;28;20049;-62
2024/03/28 13:26:30;;;;;;;0.55;0.00;;;;;;;23.80;33.88;97881.00;10404793;28;20049;-62
2024/03/28 13:31:34;;;;;;;0.38;0.05;;;;;;;23.59;33.61;97885.50;10403891;28;20483;-60
2024/03/28 13:36:34;;;;;;;0.43;0.08;;;;;;;20.87;36.89;97912.31;10387888;28;20049;-60
2024/03/28 13:41:35;;;;;;;0.30;0.10;;;;;;;18.95;40.18;97922.16;10383947;28;20463;-60
2024/03/28 13:46:36;;;;;;;0.38;0.00;;;;;;;18.83;40.54;97939.69;10382991;28;20098;-59
2024/03/28 13:51:36;;;;;;;1.00;0.00;;;;;;;19.46;39.78;97937.03;10386300;28;20084;-62
2024/03/28 13:56:37;;;;;;;0.22;0.10;;;;;;;19.00;40.54;97941.97;10379039;28;20119;-58
2024/03/28 14:01:41;;;;;;;1.25;0.03;;;;;;;17.33;42.59;97957.44;10383321;28;20049;-58
2024/03/28 14:06:42;;;;;;;1.35;0.30;;;;;;;18.21;41.08;97941.41;10378464;28;20492;-59
2024/03/28 14:11:43;;;;;;;0.47;0.00;;;;;;;17.53;42.11;97956.50;10382778;28;20049;-61
2024/03/28 14:16:44;;;;;;;0.20;0.08;;;;;;;16.81;42.68;97964.97;10382311;28;20045;-61
2024/03/28 14:21:45;;;;;;;0.25;0.10;;;;;;;16.25;42.66;97973.16;10384477;28;20095;-61
2024/03/28 14:26:45;;;;;;;2.20;0.00;;;;;;;16.00;40.43;97972.06;10384933;28;20103;-61
2024/03/28 14:31:46;;;;;;;1.10;0.55;;;;;;;16.00;40.31;97974.78;10379034;28;20045;-62
2024/03/28 14:36:46;;;;;;;0.52;0.00;;;;;;;16.31;39.25;97977.50;10377818;28;20049;-63
2024/03/28 14:41:47;;;;;;;0.00;0.00;;;;;;;17.19;36.63;97989.00;10378846;28;20052;-63
2024/03/28 14:46:47;;;;;;;1.02;0.00;;;;;;;16.25;36.89;98008.41;10381181;28;20053;-63
2024/03/28 14:51:50;;;;;;;0.10;0.00;;;;;;;15.99;36.92;98000.25;10387636;28;20048;-63
2024/03/28 14:56:51;;;;;;;0.80;0.20;;;;;;;16.51;36.68;98011.09;10388418;28;20034;-63
2024/03/28 15:01:51;;;;;;;4.25;0.00;;;;;;;16.06;36.22;98016.25;10389805;28;20054;-62
2024/03/28 15:06:52;;;;;;;0.10;0.00;;;;;;;15.74;36.68;98027.28;10393875;28;20053;-62
2024/03/28 15:11:52;;;;;;;1.67;0.28;;;;;;;15.58;37.00;98019.13;10388279;28;20053;-62
2024/03/28 15:16:53;;;;;;;0.95;0.10;;;;;;;15.36;37.71;98021.19;10387584;28;20052;-61
2024/03/28 15:21:53;;;;;;;1.35;0.00;;;;;;;15.30;38.00;98035.78;10392253;28;20567;-61
2024/03/28 15:26:54;;;;;;;0.20;0.10;;;;;;;15.06;37.85;98047.84;10387617;28;20045;-61
2024/03/28 15:31:55;;;;;;;0.77;0.00;;;;;;;14.84;37.50;98031.75;10389687;28;20049;-64
2024/03/28 15:36:56;;;;;;;0.00;0.00;;;;;;;14.87;37.68;98041.25;10372447;28;20107;-67
2024/03/28 15:41:56;;;;;;;1.08;0.10;;;;;;;14.80;38.01;98060.41;10385922;28;20045;-65
2024/03/28 15:46:57;;;;;;;0.77;0.10;;;;;;;14.72;37.80;98041.97;10383623;28;20057;-66
2024/03/28 15:51:57;;;;;;;0.65;0.30;;;;;;;14.59;37.96;98034.28;10369890;28;20567;-66
2024/03/28 15:56:58;;;;;;;0.13;0.00;;;;;;;14.58;38.34;98046.19;10386457;28;20454;-64
2024/03/28 16:01:58;;;;;;;0.55;0.10;;;;;;;14.45;38.88;98053.63;10386414;28;20303;-65
2024/03/28 16:07:00;;;;;;;0.20;0.10;;;;;;;14.45;39.07;98064.44;10378350;28;20043;-67
2024/03/28 16:12:01;;;;;;;0.85;0.20;;;;;;;14.50;39.75;98073.66;10370230;28;20092;-66
2024/03/28 16:17:01;;;;;;;1.45;0.30;;;;;;;14.35;40.49;98080.56;10385441;28;20034;-66
2024/03/28 16:22:03;;;;;;;2.22;0.20;;;;;;;14.24;40.60;98082.38;10381982;28;20034;-65
2024/03/28 16:27:03;;;;;;;0.60;0.05;;;;;;;14.16;40.79;98098.19;10381333;28;20103;-61
2024/03/28 16:32:04;;;;;;;1.65;0.10;;;;;;;14.04;41.15;98104.59;10383309;28;20512;-67
2024/03/28 16:37:05;;;;;;;0.40;0.10;;;;;;;14.01;41.43;98106.97;10382526;28;20049;-65
2024/03/28 16:42:05;;;;;;;0.88;0.20;;;;;;;13.68;42.66;98123.09;10385533;28;20393;-63
2024/03/28 16:47:08;;;;;;;2.45;0.10;;;;;;;13.28;44.39;98117.94;10380652;28;20049;-66
2024/03/28 16:52:08;;;;;;;2.30;0.77;;;;;;;13.22;44.71;98113.53;10383478;28;20471;-65
2024/03/28 16:57:09;;;;;;;0.13;0.13;;;;;;;13.32;44.56;98134.47;10385072;28;20041;-64
2024/03/28 17:02:11;;;;;;;0.25;0.10;;;;;;;13.27;44.55;98136.00;10358480;28;20091;-66
2024/03/28 17:07:11;;;;;;;0.32;0.10;;;;;;;13.37;44.63;98142.63;10387995;28;20096;-65
2024/03/28 17:12:12;;;;;;;2.78;1.35;;;;;;;13.36;44.55;98138.31;10382066;28;20488;-70
2024/03/28 17:17:12;;;;;;;0.63;0.10;;;;;;;13.43;44.54;98147.06;10380267;28;20652;-71
2024/03/28 17:22:13;;;;;;;0.82;0.10;;;;;;;13.35;45.07;98150.16;10380331;28;20071;-71
2024/03/28 17:27:13;;;;;;;1.38;0.10;;;;;;;13.38;45.04;98161.28;10362608;28;20037;-72
2024/03/28 17:32:14;;;;;;;0.17;0.10;;;;;;;13.33;45.56;98168.47;10384590;28;20041;-71
2024/03/28 17:37:15;;;;;;;0.47;0.10;;;;;;;13.31;45.64;98157.97;10379894;28;20053;-71
2024/03/28 17:42:15;;;;;;;0.70;0.10;;;;;;;13.23;46.61;98178.03;10382478;28;20046;-71
2024/03/28 17:47:16;;;;;;;1.08;0.10;;;;;;;13.02;47.32;98182.28;10386455;28;20507;-72
2024/03/28 17:52:16;;;;;;;0.40;0.10;;;;;;;12.80;48.19;98197.59;10380989;28;20041;-71
2024/03/28 17:57:17;;;;;;;1.30;0.20;;;;;;;12.65;48.78;98207.00;10377834;28;20067;-65
2024/03/28 18:02:18;;;;;;;2.55;0.20;;;;;;;12.49;48.87;98214.00;10373982;28;20074;-66
2024/03/28 18:07:21;;;;;;;1.48;0.30;;;;;;;12.39;49.42;98219.22;10379513;28;20416;-67
2024/03/28 18:12:21;;;;;;;1.45;0.20;;;;;;;12.27;49.68;98219.25;10375981;28;20045;-66
2024/03/28 18:17:22;;;;;;;0.30;0.20;;;;;;;12.13;49.71;98228.69;10374411;28;20058;-68
2024/03/28 18:22:24;;;;;;;1.83;0.20;;;;;;;12.01;50.40;98231.41;10384616;28;20049;-66
2024/03/28 18:27:24;;;;;;;2.13;0.20;;;;;;;11.87;50.17;98256.91;10384160;28;20076;-67
2024/03/28 18:32:25;;;;;;;1.15;0.40;;;;;;;11.78;50.42;98251.06;10381883;28;20397;-67
2024/03/28 18:37:25;;;;;;;2.45;0.20;;;;;;;11.67;50.88;98265.34;10380226;28;20083;-67
2024/03/28 18:42:26;;;;;;;0.57;0.20;;;;;;;11.56;50.99;98277.75;10377524;28;20455;-68
2024/03/28 18:47:26;;;;;;;1.65;0.28;;;;;;;11.47;51.17;98289.91;10376574;28;20049;-67
2024/03/28 18:52:27;;;;;;;2.03;0.20;;;;;;;11.36;50.86;98305.00;10382892;28;20054;-66
2024/03/28 18:57:27;;;;;;;1.40;0.20;;;;;;;11.35;51.08;98315.97;10384914;28;20049;-67
2024/03/28 19:02:28;;;;;;;3.40;0.10;;;;;;;11.38;50.12;98335.16;10382627;28;20049;-67
2024/03/28 19:07:28;;;;;;;2.03;0.10;;;;;;;11.42;49.38;98341.72;10375238;28;20053;-66
2024/03/28 19:12:29;;;;;;;0.43;0.10;;;;;;;11.43;49.08;98343.38;10381681;28;20535;-65
2024/03/28 19:17:29;;;;;;;2.63;0.30;;;;;;;11.41;49.01;98363.47;10377132;28;20586;-65
2024/03/28 19:22:30;;;;;;;0.30;0.10;;;;;;;11.36;49.29;98366.88;10382419;28;20050;-66
2024/03/28 19:27:30;;;;;;;2.85;0.28;;;;;;;11.35;48.80;98375.16;10382007;28;20069;-66
2024/03/28 19:32:31;;;;;;;0.88;0.10;;;;;;;11.25;49.30;98400.72;10382443;28;20046;-66
2024/03/28 19:37:31;;;;;;;1.23;0.20;;;;;;;11.23;49.42;98402.00;10385496;28;20045;-66
2024/03/28 19:42:34;;;;;;;1.20;0.20;;;;;;;11.18;49.44;98405.41;10386868;28;20500;-66
2024/03/28 19:47:35;;;;;;;0.60;0.25;;;;;;;11.18;49.66;98401.91;10387347;28;20049;-66
2024/03/28 19:52:37;;;;;;;1.20;0.10;;;;;;;11.11;50.00;98407.34;10386789;28;20657;-66
2024/03/28 19:57:38;;;;;;;0.98;0.10;;;;;;;11.03;49.70;98408.47;10379586;28;20950;-65
2024/03/28 20:02:40;;;;;;;6.95;0.30;;;;;;;10.94;50.28;98403.63;10384142;28;20192;-64
2024/03/28 20:07:44;;;;;;;1.90;0.10;;;;;;;10.85;50.13;98401.25;10384671;28;20104;-67
2024/03/28 20:12:45;;;;;;;2.63;0.20;;;;;;;10.76;50.40;98402.63;10383392;28;20049;-66
2024/03/28 20:17:46;;;;;;;1.85;0.20;;;;;;;10.71;50.66;98408.66;10385079;28;20564;-65
2024/03/28 20:22:46;;;;;;;3.63;0.70;;;;;;;10.65;50.86;98403.38;10385236;28;20037;-68
2024/03/28 20:27:47;;;;;;;1.08;0.10;;;;;;;10.64;51.09;98409.78;10386846;28;20499;-67
2024/03/28 20:32:47;;;;;;;1.13;0.20;;;;;;;10.59;50.79;98426.59;10368398;28;20049;-68
2024/03/28 20:37:48;;;;;;;0.47;0.10;;;;;;;10.54;50.78;98437.19;10384679;28;20054;-67
2024/03/28 20:42:48;;;;;;;0.98;0.10;;;;;;;10.49;51.03;98450.47;10385725;28;20064;-68
2024/03/28 20:47:49;;;;;;;0.65;0.38;;;;;;;10.48;51.24;98455.00;10382615;28;20037;-67
2024/03/28 20:52:49;;;;;;;1.48;0.45;;;;;;;10.45;51.23;98468.09;10385718;28;20075;-68
2024/03/28 20:57:51;;;;;;;1.67;0.20;;;;;;;10.42;51.10;98476.56;10384982;28;20365;-67
2024/03/28 21:02:54;;;;;;;2.33;0.22;;;;;;;10.42;51.06;98482.75;10382261;28;20072;-67
2024/03/28 21:13:17;;;;;;;2.72;0.10;;;;;;;10.33;51.46;98489.47;10372798;28;20037;-66
2024/03/28 21:18:18;;;;;;;6.00;0.30;;;;;;;10.31;51.32;98487.00;10385214;28;20842;-68
2024/03/28 21:23:19;;;;;;;2.20;0.50;;;;;;;10.24;51.65;98509.53;10379528;28;20076;-66
2024/03/28 21:28:19;;;;;;;1.83;0.50;;;;;;;10.06;51.89;98524.53;10380568;28;20052;-68
2024/03/28 21:33:24;;;;;;;1.60;0.32;;;;;;;9.84;52.32;98526.78;10381458;28;20183;-60
2024/03/28 21:38:25;;;;;;;4.80;0.40;;;;;;;9.70;52.60;98531.41;10406425;28;20041;-60
2024/03/28 21:43:26;;;;;;;1.55;0.22;;;;;;;9.60;52.77;98517.63;10405907;28;20107;-60
2024/03/28 21:48:26;;;;;;;3.13;0.32;;;;;;;9.52;52.96;98529.44;10407188;28;20349;-60
2024/03/28 21:53:27;;;;;;;4.20;0.47;;;;;;;9.43;52.99;98540.63;10401714;28;20092;-60
2024/03/28 21:58:27;;;;;;;1.95;0.47;;;;;;;9.30;53.49;98546.84;10405142;28;20044;-60
2024/03/28 22:03:28;;;;;;;4.07;1.92;;;;;;;9.16;52.90;98542.56;10405022;28;20052;-60
2024/03/28 22:08:32;;;;;;;4.20;1.42;;;;;;;9.02;53.47;98542.59;10400939;28;20049;-59
2024/03/28 22:13:33;;;;;;;4.68;0.52;;;;;;;8.86;53.88;98546.56;10401886;28;20045;-60
2024/03/28 22:18:34;;;;;;;2.97;0.65;;;;;;;8.71;54.74;98546.00;10400631;28;20044;-61
2024/03/28 22:23:35;;;;;;;3.38;0.70;;;;;;;8.53;55.01;98565.34;10406749;28;20500;-57
2024/03/28 22:28:36;;;;;;;2.75;0.52;;;;;;;8.37;55.00;98573.78;10404179;28;20045;-56
2024/03/28 22:33:37;;;;;;;4.22;0.50;;;;;;;8.23;55.75;98571.09;10412266;28;20079;-56
2024/03/28 22:38:37;;;;;;;4.47;0.77;;;;;;;8.19;55.69;98579.75;10397356;28;20545;-56
2024/03/28 22:43:38;;;;;;;2.45;0.30;;;;;;;8.14;55.76;98577.69;10403465;28;20446;-59
2024/03/28 22:48:38;;;;;;;5.30;0.80;;;;;;;8.06;55.75;98572.53;10404716;28;20424;-60
2024/03/28 22:53:39;;;;;;;2.63;0.50;;;;;;;7.95;56.68;98571.28;10404114;28;20076;-58
2024/03/28 22:58:40;;;;;;;5.68;1.02;;;;;;;7.88;56.53;98578.47;10404195;28;20042;-58
2024/03/28 23:03:40;;;;;;;2.50;0.63;;;;;;;7.79;57.07;98582.34;10409235;28;20491;-58
2024/03/28 23:08:41;;;;;;;2.92;0.60;;;;;;;7.72;57.24;98595.69;10401463;28;20618;-58
2024/03/28 23:13:41;;;;;;;3.60;0.75;;;;;;;7.68;56.89;98602.47;10394142;28;20048;-58
2024/03/28 23:18:44;;;;;;;1.50;0.50;;;;;;;7.62;57.20;98596.09;10413642;28;20047;-58
2024/03/28 23:23:45;;;;;;;3.75;0.52;;;;;;;7.55;57.81;98597.91;10409448;28;20045;-59
2024/03/28 23:28:46;;;;;;;2.33;0.50;;;;;;;7.51;57.41;98588.63;10410581;28;20053;-58
2024/03/28 23:33:47;;;;;;;1.42;0.55;;;;;;;7.45;57.84;98578.75;10408480;28;20050;-58